Terminal Aerodrome Forecast
Issued by NWS

Home | Current Version | Previous Version | Text Only | Print | Product List | Glossary On
Versions: 1 2 3 4 5 6 7 8 9 10 11 12 13 14 15 16 17 18 19
459
FTUS41 KBOX 221741 RRA
TAFBED
TAF
KBED 221741Z 2218/2318 28010G18KT P6SM BKN090
     FM230000 28010G18KT P6SM SCT080=

USA.gov is the U.S. government's official web portal to all federal, state and local government web resources and services.